Time;durP1;ratioP1;P1;durP2;ratioP2;P2;SDS_P1;SDS_P2;PMS_P1;PMS_P2;Temp;Humidity;BMP_temperature;BMP_pressure;BME280_temperature;BME280_humidity;BME280_pressure;Samples;Min_cycle;Max_cycle;Signal;HPM_P1;HPM_P2
2021/04/20 00:00:01;;;;;;;2.43;1.70;;;10.00;86.50;;;;;;5098164;28;20245;-68
2021/04/20 00:02:27;;;;;;;4.40;1.83;;;10.10;86.60;;;;;;5110624;28;20585;-68
2021/04/20 00:04:54;;;;;;;2.97;1.60;;;10.10;86.60;;;;;;5111010;28;20206;-68
2021/04/20 00:07:21;;;;;;;5.17;2.10;;;10.00;86.50;;;;;;5111441;28;20199;-68
2021/04/20 00:09:49;;;;;;;3.50;2.37;;;10.10;86.70;;;;;;5110412;27;20214;-67
2021/04/20 00:12:16;;;;;;;3.13;1.90;;;10.10;86.60;;;;;;5111211;28;20671;-66
2021/04/20 00:14:42;;;;;;;2.67;1.97;;;10.10;86.60;;;;;;5109310;27;20675;-68
2021/04/20 00:17:09;;;;;;;1.90;1.60;;;10.10;86.60;;;;;;5109405;27;20312;-67
2021/04/20 00:19:35;;;;;;;1.90;1.70;;;10.10;86.60;;;;;;5113829;27;20227;-67
2021/04/20 00:22:02;;;;;;;5.00;1.90;;;10.00;86.50;;;;;;5112399;27;20330;-67
2021/04/20 00:24:29;;;;;;;2.23;1.97;;;10.00;86.80;;;;;;5109297;28;20226;-68
2021/04/20 00:26:56;;;;;;;3.20;1.80;;;10.00;86.90;;;;;;5111297;28;20648;-68
2021/04/20 00:29:23;;;;;;;2.33;1.50;;;10.00;87.00;;;;;;5116857;27;20196;-67
2021/04/20 00:31:49;;;;;;;3.30;1.90;;;10.00;87.20;;;;;;5114086;27;20271;-67
2021/04/20 00:34:16;;;;;;;6.63;2.40;;;10.00;87.30;;;;;;5119169;27;20196;-68
2021/04/20 00:36:42;;;;;;;4.37;2.17;;;10.00;87.60;;;;;;5118979;27;20195;-67
2021/04/20 00:39:09;;;;;;;3.67;2.53;;;9.90;88.90;;;;;;5110328;28;20220;-67
2021/04/20 00:41:37;;;;;;;4.10;2.47;;;9.90;89.10;;;;;;5116645;27;20216;-67
2021/04/20 00:44:04;;;;;;;3.80;2.20;;;9.90;89.50;;;;;;5111699;27;20692;-67
2021/04/20 00:46:30;;;;;;;3.23;2.10;;;9.90;89.70;;;;;;5115714;27;20193;-67
2021/04/20 00:48:57;;;;;;;3.37;2.30;;;9.90;89.80;;;;;;5121401;27;20347;-67
2021/04/20 00:51:24;;;;;;;3.03;2.57;;;9.90;90.00;;;;;;5118078;27;20199;-67
2021/04/20 00:53:52;;;;;;;2.67;2.17;;;9.90;90.00;;;;;;5111031;27;20212;-68
2021/04/20 00:56:25;;;;;;;4.63;2.73;;;9.90;90.10;;;;;;5109890;27;20204;-68
2021/04/20 00:58:56;;;;;;;3.97;2.70;;;9.90;90.20;;;;;;5124619;27;20224;-68
2021/04/20 01:01:26;;;;;;;3.53;2.63;;;9.90;90.50;;;;;;5109749;28;20195;-67
2021/04/20 01:03:52;;;;;;;3.63;2.43;;;9.80;90.60;;;;;;5109431;27;20252;-68
2021/04/20 01:06:19;;;;;;;4.90;2.20;;;9.80;90.60;;;;;;5111253;27;20510;-68
2021/04/20 01:08:47;;;;;;;5.87;3.20;;;9.80;90.70;;;;;;5127089;27;20195;-68
2021/04/20 01:11:14;;;;;;;4.63;2.60;;;9.80;90.90;;;;;;5109668;28;20256;-67
2021/04/20 01:13:41;;;;;;;4.03;2.40;;;9.80;91.00;;;;;;5110015;27;20728;-67
2021/04/20 01:16:09;;;;;;;7.47;2.80;;;9.80;91.10;;;;;;5109367;27;20295;-67
2021/04/20 01:18:37;;;;;;;2.90;2.30;;;9.80;91.50;;;;;;5110541;27;20307;-67
2021/04/20 01:21:06;;;;;;;5.53;2.87;;;9.70;91.70;;;;;;5109674;27;20319;-67
2021/04/20 01:23:53;;;;;;;5.50;2.70;;;9.70;91.90;;;;;;5109523;27;20429;-67
2021/04/20 01:26:24;;;;;;;5.30;2.33;;;9.70;92.20;;;;;;5104273;27;20489;-67
2021/04/20 01:28:51;;;;;;;2.63;2.00;;;9.70;92.30;;;;;;5110244;27;20229;-67
2021/04/20 01:31:17;;;;;;;3.10;2.20;;;9.70;92.40;;;;;;5111369;27;20250;-67
2021/04/20 01:33:44;;;;;;;3.70;2.47;;;9.70;92.70;;;;;;5098946;27;20223;-67
2021/04/20 01:36:12;;;;;;;3.50;2.20;;;9.70;92.80;;;;;;5118787;27;20230;-67
2021/04/20 01:38:42;;;;;;;3.83;2.00;;;9.70;93.10;;;;;;5113865;27;20699;-67
2021/04/20 01:41:08;;;;;;;2.27;1.70;;;9.60;93.20;;;;;;5114526;27;20195;-68
2021/04/20 01:43:36;;;;;;;1.77;1.60;;;9.60;93.20;;;;;;5108255;27;20271;-67
2021/04/20 01:46:03;;;;;;;2.93;1.80;;;9.60;93.40;;;;;;5109629;27;20199;-67
2021/04/20 01:48:31;;;;;;;3.10;2.00;;;9.60;93.50;;;;;;5110319;27;20192;-68
2021/04/20 01:50:58;;;;;;;1.93;1.70;;;9.60;93.60;;;;;;5107121;27;20290;-68
2021/04/20 01:53:24;;;;;;;2.30;1.70;;;9.60;93.60;;;;;;5109071;27;20332;-68
2021/04/20 01:55:57;;;;;;;2.97;1.57;;;9.70;93.70;;;;;;5112785;27;20256;-68
2021/04/20 01:58:27;;;;;;;1.93;1.60;;;9.60;93.70;;;;;;5107161;27;20626;-67
2021/04/20 02:00:56;;;;;;;4.63;1.87;;;9.70;93.80;;;;;;5104431;27;20258;-67
2021/04/20 02:03:23;;;;;;;2.23;1.53;;;9.70;93.80;;;;;;5108310;27;20231;-68
2021/04/20 02:05:50;;;;;;;2.83;1.70;;;9.70;93.80;;;;;;5109856;28;20690;-68
2021/04/20 02:08:17;;;;;;;2.00;1.70;;;9.70;93.70;;;;;;5109305;27;20275;-67
2021/04/20 02:10:44;;;;;;;3.00;1.77;;;9.70;93.80;;;;;;5108856;28;20203;-66
2021/04/20 02:13:11;;;;;;;3.00;1.60;;;9.70;93.70;;;;;;5108253;27;20741;-67
2021/04/20 02:15:37;;;;;;;2.07;1.80;;;9.70;93.80;;;;;;5107196;28;20715;-66
2021/04/20 02:18:07;;;;;;;5.07;2.20;;;9.70;93.90;;;;;;5098114;28;20213;-66
2021/04/20 02:20:35;;;;;;;2.97;1.97;;;9.60;94.10;;;;;;5108910;28;20238;-67
2021/04/20 02:23:02;;;;;;;2.60;2.13;;;9.70;94.40;;;;;;5109268;28;20210;-67
2021/04/20 02:25:29;;;;;;;4.20;2.20;;;9.70;94.60;;;;;;5106834;28;20203;-67
2021/04/20 02:27:56;;;;;;;3.37;2.00;;;9.60;94.80;;;;;;5108138;28;20223;-67
2021/04/20 02:30:24;;;;;;;2.77;2.10;;;9.60;94.90;;;;;;5108407;28;20218;-67
2021/04/20 02:32:51;;;;;;;3.93;2.30;;;9.60;95.10;;;;;;5108415;27;20216;-67
2021/04/20 02:35:19;;;;;;;3.37;2.07;;;9.60;95.10;;;;;;5109836;27;20199;-67
2021/04/20 02:37:47;;;;;;;2.77;1.97;;;9.60;95.30;;;;;;5108092;28;20206;-67
2021/04/20 02:40:19;;;;;;;2.37;1.93;;;9.50;95.40;;;;;;5108101;28;20240;-67
2021/04/20 02:42:47;;;;;;;4.90;2.23;;;9.50;95.50;;;;;;5104973;28;20665;-67
2021/04/20 02:45:14;;;;;;;3.43;2.00;;;9.50;95.60;;;;;;5114814;28;20661;-67
2021/04/20 02:47:41;;;;;;;3.30;1.70;;;9.50;95.70;;;;;;5107660;28;20204;-67
2021/04/20 02:50:09;;;;;;;2.90;1.97;;;9.50;95.80;;;;;;5107500;27;20207;-67
2021/04/20 02:52:38;;;;;;;3.30;1.93;;;9.50;95.80;;;;;;5114750;28;20200;-68
2021/04/20 02:55:07;;;;;;;2.47;2.10;;;9.50;95.80;;;;;;5107011;28;20203;-67
2021/04/20 02:57:36;;;;;;;2.23;2.00;;;9.50;95.80;;;;;;5108658;28;20223;-67
2021/04/20 03:00:05;;;;;;;2.40;2.20;;;9.50;95.80;;;;;;5106888;28;20612;-66
2021/04/20 03:02:32;;;;;;;2.83;1.70;;;9.50;95.80;;;;;;5098520;28;20196;-66
2021/04/20 03:04:59;;;;;;;2.87;1.90;;;9.60;95.80;;;;;;5106955;28;20599;-67
2021/04/20 03:07:25;;;;;;;2.73;1.90;;;9.50;95.70;;;;;;5106669;28;20192;-66
2021/04/20 03:09:55;;;;;;;2.53;2.00;;;9.50;95.70;;;;;;5123756;27;20597;-66
2021/04/20 03:12:22;;;;;;;3.30;2.27;;;9.60;95.80;;;;;;5109357;28;20199;-66
2021/04/20 03:14:49;;;;;;;3.80;1.97;;;9.60;95.80;;;;;;5107148;28;20235;-65
2021/04/20 03:17:18;;;;;;;2.13;1.57;;;9.60;95.80;;;;;;5106540;28;20612;-67
2021/04/20 03:19:45;;;;;;;2.47;1.80;;;9.60;95.80;;;;;;5100296;28;20216;-66
2021/04/20 03:22:13;;;;;;;2.43;1.70;;;9.60;95.80;;;;;;5108529;28;20231;-67
2021/04/20 03:25:13;;;;;;;4.43;2.10;;;9.60;95.90;;;;;;5107924;28;20274;-67
2021/04/20 03:27:44;;;;;;;3.87;2.23;;;9.60;95.90;;;;;;5110188;27;20666;-66
2021/04/20 03:30:13;;;;;;;2.67;1.93;;;9.60;95.90;;;;;;5108795;28;20251;-67
2021/04/20 03:32:45;;;;;;;2.50;1.83;;;9.60;96.00;;;;;;5107671;27;20294;-67
2021/04/20 03:35:17;;;;;;;3.90;2.07;;;9.70;96.10;;;;;;5111234;28;20215;-67
2021/04/20 03:37:49;;;;;;;4.00;2.43;;;9.60;96.10;;;;;;5109272;27;20846;-67
2021/04/20 03:40:19;;;;;;;5.37;2.10;;;9.60;96.10;;;;;;5110389;27;20567;-68
2021/04/20 03:42:50;;;;;;;2.60;2.20;;;9.60;96.20;;;;;;5112302;27;20229;-67
2021/04/20 03:45:21;;;;;;;2.43;2.20;;;9.60;96.30;;;;;;5110515;27;20204;-67
2021/04/20 03:47:54;;;;;;;3.80;2.40;;;9.70;96.50;;;;;;5111512;27;20231;-67
2021/04/20 03:50:24;;;;;;;2.47;2.17;;;9.60;96.40;;;;;;5111174;28;20247;-67
2021/04/20 03:52:55;;;;;;;3.70;2.47;;;9.70;96.50;;;;;;5110703;28;20203;-67
2021/04/20 03:55:25;;;;;;;3.30;2.33;;;9.70;96.50;;;;;;5110931;27;20207;-67
2021/04/20 03:57:55;;;;;;;2.77;2.53;;;9.80;96.50;;;;;;5110218;28;20291;-67
2021/04/20 04:00:24;;;;;;;4.43;2.40;;;9.80;96.50;;;;;;5108732;28;20676;-67
2021/04/20 04:02:53;;;;;;;4.00;2.67;;;9.80;96.60;;;;;;5102960;27;20196;-67
2021/04/20 04:05:24;;;;;;;4.43;3.03;;;9.80;96.70;;;;;;5110382;27;20203;-67
2021/04/20 04:07:53;;;;;;;3.30;2.33;;;9.90;96.80;;;;;;5093413;28;20296;-67
2021/04/20 04:10:22;;;;;;;4.30;2.63;;;9.90;96.80;;;;;;5111370;28;20209;-67
2021/04/20 04:12:55;;;;;;;4.80;2.80;;;9.90;96.80;;;;;;5109523;28;20214;-67
2021/04/20 04:15:26;;;;;;;5.70;3.43;;;9.90;96.70;;;;;;5108935;28;20207;-66
2021/04/20 04:17:56;;;;;;;6.67;3.00;;;10.80;96.60;;;;;;5109921;28;20187;-67
2021/04/20 04:20:23;;;;;;;7.53;3.40;;;10.00;96.20;;;;;;5110091;28;20235;-67
2021/04/20 04:22:54;;;;;;;5.37;3.73;;;10.00;96.20;;;;;;5109687;28;20211;-65
2021/04/20 04:25:29;;;;;;;8.30;3.53;;;10.00;96.10;;;;;;5108808;28;20302;-66
2021/04/20 04:28:01;;;;;;;8.83;3.83;;;10.00;96.00;;;;;;5110159;27;20274;-66
2021/04/20 04:30:28;;;;;;;12.00;4.50;;;10.00;96.00;;;;;;5110128;28;20260;-66
2021/04/20 04:32:55;;;;;;;20.10;6.97;;;10.10;96.10;;;;;;5109007;27;20203;-68
2021/04/20 04:35:23;;;;;;;22.00;7.03;;;10.00;96.30;;;;;;5111464;27;20602;-67
2021/04/20 04:37:50;;;;;;;18.57;7.10;;;10.10;96.10;;;;;;5109720;27;20210;-66
2021/04/20 04:40:19;;;;;;;20.17;6.70;;;10.10;96.10;;;;;;5110752;27;20579;-66
2021/04/20 04:42:47;;;;;;;17.57;6.60;;;10.20;96.10;;;;;;5110089;28;20227;-66
2021/04/20 04:45:16;;;;;;;19.10;6.93;;;10.20;96.00;;;;;;5109044;28;20266;-66
2021/04/20 04:47:43;;;;;;;19.80;6.60;;;10.30;95.90;;;;;;5108518;27;20672;-67
2021/04/20 04:50:11;;;;;;;22.10;6.87;;;10.40;95.90;;;;;;5105976;27;20231;-67
2021/04/20 04:52:40;;;;;;;19.83;6.53;;;10.50;95.90;;;;;;5109106;27;20265;-67
2021/04/20 04:55:08;;;;;;;17.77;6.90;;;10.50;95.80;;;;;;5110986;27;20232;-67
2021/04/20 04:57:35;;;;;;;22.93;7.43;;;10.60;95.80;;;;;;5108800;27;20224;-67
2021/04/20 05:00:06;;;;;;;18.63;6.93;;;10.60;96.10;;;;;;5108745;27;20220;-67
2021/04/20 05:02:34;;;;;;;19.77;6.30;;;10.70;95.70;;;;;;5105802;28;20196;-67
2021/04/20 05:05:04;;;;;;;16.40;6.57;;;10.70;96.00;;;;;;5109603;27;20283;-66
2021/04/20 05:07:31;;;;;;;17.97;6.63;;;10.70;95.60;;;;;;5106074;27;20273;-67
2021/04/20 05:10:00;;;;;;;15.17;6.10;;;10.80;95.70;;;;;;5111739;27;20288;-67
2021/04/20 05:12:27;;;;;;;13.87;6.07;;;10.80;95.60;;;;;;5109937;27;20194;-66
2021/04/20 05:14:57;;;;;;;14.83;6.47;;;10.80;95.70;;;;;;5110841;27;20563;-67
2021/04/20 05:17:27;;;;;;;19.47;6.30;;;10.80;95.80;;;;;;5108298;27;20205;-67
2021/04/20 05:19:54;;;;;;;12.57;5.97;;;11.00;95.90;;;;;;5107781;28;20524;-66
2021/04/20 05:22:20;;;;;;;13.87;5.60;;;11.00;95.80;;;;;;5109206;27;20239;-66
2021/04/20 05:24:47;;;;;;;17.40;6.10;;;11.10;95.60;;;;;;5110148;27;20194;-67
2021/04/20 05:27:13;;;;;;;18.00;6.33;;;11.10;95.60;;;;;;5108955;27;20775;-67
2021/04/20 05:29:40;;;;;;;21.10;6.20;;;11.40;95.60;;;;;;5108664;28;20582;-67
2021/04/20 05:32:08;;;;;;;15.30;6.93;;;11.70;95.20;;;;;;5109317;27;20202;-67
2021/04/20 05:34:36;;;;;;;14.63;6.33;;;12.10;94.90;;;;;;5109502;27;20197;-66
2021/04/20 05:37:03;;;;;;;13.40;6.23;;;12.70;94.30;;;;;;5110298;28;20200;-66
2021/04/20 05:39:29;;;;;;;13.07;5.80;;;13.20;93.20;;;;;;5106139;28;20235;-66
2021/04/20 05:41:56;;;;;;;17.57;7.77;;;13.50;92.30;;;;;;5110463;27;20221;-66
2021/04/20 05:44:23;;;;;;;15.20;6.80;;;13.70;91.30;;;;;;5106590;27;20263;-67
2021/04/20 05:46:49;;;;;;;14.70;6.30;;;13.90;90.60;;;;;;5108870;27;20620;-66
2021/04/20 05:49:18;;;;;;;11.10;5.27;;;14.10;89.90;;;;;;5109543;28;20685;-66
2021/04/20 05:51:46;;;;;;;11.97;6.27;;;14.40;88.60;;;;;;5107458;28;20202;-67
2021/04/20 05:54:13;;;;;;;12.97;6.20;;;14.60;87.20;;;;;;5109443;28;20278;-66
2021/04/20 05:56:40;;;;;;;15.97;6.83;;;14.90;84.10;;;;;;5108300;27;20257;-67
2021/04/20 05:59:07;;;;;;;15.40;7.17;;;15.20;82.30;;;;;;5106387;27;20576;-67
2021/04/20 06:01:40;;;;;;;20.17;8.73;;;15.60;80.40;;;;;;5108715;27;20204;-67
2021/04/20 06:04:09;;;;;;;25.00;8.87;;;16.00;77.80;;;;;;5106614;28;20211;-68
2021/04/20 06:06:35;;;;;;;21.20;8.20;;;16.40;74.80;;;;;;5109029;27;20228;-68
2021/04/20 06:09:04;;;;;;;32.50;8.20;;;16.80;73.10;;;;;;5110230;27;20293;-67
2021/04/20 06:11:31;;;;;;;37.37;8.83;;;17.50;71.10;;;;;;5115224;27;20197;-67
2021/04/20 06:13:57;;;;;;;23.73;8.47;;;18.20;68.60;;;;;;5111506;27;20338;-67
2021/04/20 06:16:24;;;;;;;34.93;9.10;;;18.80;66.00;;;;;;5108352;27;20229;-67
2021/04/20 06:18:51;;;;;;;22.90;8.00;;;19.40;64.70;;;;;;5109279;28;20245;-67
2021/04/20 06:21:19;;;;;;;22.80;8.17;;;20.10;61.40;;;;;;5108721;28;20251;-67
2021/04/20 06:23:47;;;;;;;15.93;6.93;;;20.80;58.70;;;;;;5103653;27;20525;-67
2021/04/20 06:26:15;;;;;;;27.30;8.90;;;21.40;57.60;;;;;;5121547;27;20192;-68
2021/04/20 06:28:42;;;;;;;33.03;8.93;;;22.00;55.30;;;;;;5105335;28;20729;-68
2021/04/20 06:31:08;;;;;;;12.37;7.07;;;22.30;53.20;;;;;;5106089;28;20717;-67
2021/04/20 06:33:37;;;;;;;19.37;7.60;;;22.50;53.00;;;;;;5107417;28;20200;-68
2021/04/20 06:36:05;;;;;;;29.75;9.30;;;22.70;52.20;;;;;;5106708;28;20198;-68
2021/04/20 06:38:34;;;;;;;29.80;9.05;;;22.90;51.20;;;;;;5122383;27;20215;-67
2021/04/20 06:41:03;;;;;;;20.73;7.15;;;22.90;50.20;;;;;;5103074;27;20306;-68
2021/04/20 06:43:37;;;;;;;15.57;6.95;;;22.80;49.80;;;;;;5118963;27;20330;-68
2021/04/20 06:46:10;;;;;;;19.73;5.53;;;22.80;49.80;;;;;;5098699;28;20198;-68
2021/04/20 06:48:43;;;;;;;15.48;5.13;;;23.00;50.10;;;;;;5102168;28;20216;-68
2021/04/20 06:51:15;;;;;;;12.50;4.65;;;23.50;50.10;;;;;;5103057;28;20195;-68
2021/04/20 06:53:46;;;;;;;16.48;4.95;;;24.00;49.30;;;;;;5104165;28;20596;-67
2021/04/20 06:56:23;;;;;;;11.27;4.38;;;24.40;48.20;;;;;;5101689;28;20426;-67
2021/04/20 06:58:57;;;;;;;14.55;4.75;;;24.10;47.60;;;;;;5102613;28;20552;-67
2021/04/20 07:01:33;;;;;;;13.70;4.97;;;24.50;47.20;;;;;;5103484;28;20227;-68
2021/04/20 07:04:14;;;;;;;9.40;4.55;;;24.90;46.40;;;;;;5108732;28;20527;-68
2021/04/20 07:06:56;;;;;;;13.05;4.80;;;25.10;46.00;;;;;;5106740;27;20199;-68
2021/04/20 07:09:25;;;;;;;13.38;5.10;;;25.40;45.70;;;;;;5096749;27;20403;-68
2021/04/20 07:11:58;;;;;;;10.95;4.50;;;25.70;45.00;;;;;;5104355;27;20222;-68
2021/04/20 07:14:46;;;;;;;11.45;4.80;;;26.00;45.00;;;;;;5107001;28;20315;-68
2021/04/20 07:17:28;;;;;;;11.25;4.63;;;26.30;44.50;;;;;;5107591;27;20200;-68
2021/04/20 07:20:19;;;;;;;17.20;5.35;;;26.60;43.90;;;;;;5106931;28;20302;-67
2021/04/20 07:23:24;;;;;;;15.50;5.13;;;26.90;43.20;;;;;;5102299;27;20199;-68
2021/04/20 07:26:06;;;;;;;9.63;4.78;;;27.20;42.80;;;;;;5109788;27;20242;-67
2021/04/20 07:28:48;;;;;;;22.27;5.60;;;27.60;42.00;;;;;;5104691;27;20206;-68
2021/04/20 07:31:21;;;;;;;11.32;5.47;;;28.20;41.50;;;;;;5105708;27;20519;-67
2021/04/20 07:34:14;;;;;;;9.85;5.15;;;29.00;40.00;;;;;;5105236;27;20231;-67
2021/04/20 07:36:51;;;;;;;14.55;5.60;;;30.10;38.70;;;;;;5066094;28;20303;-67
2021/04/20 07:39:20;;;;;;;13.18;4.53;;;31.10;37.10;;;;;;5064879;28;20291;-67
2021/04/20 07:41:52;;;;;;;7.47;3.50;;;32.10;36.00;;;;;;5047155;28;20680;-68
2021/04/20 07:44:30;;;;;;;15.73;4.65;;;33.30;35.40;;;;;;5062009;28;20228;-67
2021/04/20 07:47:01;;;;;;;6.57;3.75;;;34.60;34.20;;;;;;5061594;28;20300;-67
2021/04/20 07:49:41;;;;;;;6.45;4.15;;;35.80;33.30;;;;;;5061116;28;20657;-68
2021/04/20 07:52:13;;;;;;;12.77;4.82;;;36.90;32.10;;;;;;5040743;28;20186;-67
2021/04/20 07:54:45;;;;;;;13.25;5.22;;;37.90;30.50;;;;;;5062186;28;20209;-68
2021/04/20 07:57:19;;;;;;;11.60;6.30;;;38.50;29.20;;;;;;5065597;28;20254;-67
2021/04/20 07:59:59;;;;;;;13.77;5.75;;;38.80;28.50;;;;;;5058163;28;20229;-68
2021/04/20 08:02:35;;;;;;;11.82;5.75;;;39.10;27.90;;;;;;5063341;28;20220;-68
2021/04/20 08:05:07;;;;;;;13.13;5.47;;;39.40;27.50;;;;;;5061837;28;20280;-65
2021/04/20 08:07:43;;;;;;;12.45;6.57;;;40.00;27.60;;;;;;5061346;28;20210;-68
2021/04/20 08:10:13;;;;;;;11.00;5.70;;;40.70;26.80;;;;;;5059438;28;20557;-67
2021/04/20 08:12:51;;;;;;;8.52;5.05;;;41.20;26.60;;;;;;5067299;28;20204;-67
2021/04/20 08:15:25;;;;;;;10.10;5.60;;;42.00;26.30;;;;;;5099049;27;20562;-66
2021/04/20 08:26:19;;;;;;;11.15;6.68;;;44.20;24.50;;;;;;5057928;28;20233;-66
2021/04/20 08:28:51;;;;;;;10.43;6.63;;;45.00;23.90;;;;;;5060547;28;20262;-66
2021/04/20 08:31:22;;;;;;;8.05;6.57;;;45.40;23.50;;;;;;5062403;28;20231;-66
2021/04/20 08:33:55;;;;;;;7.45;6.75;;;45.80;23.30;;;;;;5063899;28;20197;-66
2021/04/20 08:36:32;;;;;;;13.73;7.18;;;46.20;22.90;;;;;;5060222;28;20652;-66
2021/04/20 08:39:07;;;;;;;10.27;6.95;;;46.60;22.50;;;;;;5062406;28;20200;-67
2021/04/20 08:41:42;;;;;;;13.57;8.60;;;46.90;22.30;;;;;;5059496;28;20675;-67
2021/04/20 08:44:18;;;;;;;13.15;8.10;;;47.30;22.30;;;;;;5061522;28;20204;-66
2021/04/20 08:46:55;;;;;;;13.30;7.90;;;47.40;21.70;;;;;;5064469;28;20192;-67
2021/04/20 08:49:34;;;;;;;17.73;8.48;;;47.80;21.60;;;;;;5067542;28;20541;-67
2021/04/20 08:52:04;;;;;;;18.45;11.10;;;48.20;21.10;;;;;;5061776;28;20208;-66
2021/04/20 08:54:42;;;;;;;15.02;10.45;;;48.30;20.50;;;;;;5059015;28;20223;-67
2021/04/20 08:57:19;;;;;;;25.73;12.75;;;48.50;20.40;;;;;;5067207;28;20274;-66
2021/04/20 08:59:55;;;;;;;19.85;12.75;;;48.50;19.70;;;;;;5063464;28;20220;-66
2021/04/20 09:02:35;;;;;;;14.05;11.25;;;48.20;19.10;;;;;;5066947;28;20773;-66
2021/04/20 09:05:20;;;;;;;14.48;11.13;;;48.10;19.40;;;;;;5052929;28;20278;-66
2021/04/20 09:07:56;;;;;;;17.13;11.85;;;48.20;19.40;;;;;;5065382;28;20204;-66
2021/04/20 09:10:31;;;;;;;19.90;11.00;;;48.30;19.00;;;;;;5063605;28;20196;-67
2021/04/20 09:13:07;;;;;;;13.73;10.93;;;48.60;19.10;;;;;;5060058;28;20192;-66
2021/04/20 09:15:37;;;;;;;15.30;9.60;;;48.90;19.10;;;;;;5067069;28;20705;-66
2021/04/20 09:18:07;;;;;;;13.20;10.32;;;49.00;18.90;;;;;;5064324;28;20215;-68
2021/04/20 09:20:40;;;;;;;16.58;10.43;;;49.20;18.70;;;;;;5063927;28;20217;-68
2021/04/20 09:23:19;;;;;;;17.48;11.55;;;49.40;18.60;;;;;;5058313;28;20212;-67
2021/04/20 09:25:51;;;;;;;21.75;12.15;;;49.60;18.40;;;;;;5101558;28;20611;-68
2021/04/20 09:28:30;;;;;;;13.57;10.15;;;49.60;18.00;;;;;;5101063;27;20698;-68
2021/04/20 09:31:06;;;;;;;20.05;12.25;;;49.60;18.20;;;;;;5118904;27;20559;-67
2021/04/20 09:33:41;;;;;;;26.40;12.40;;;49.60;18.00;;;;;;5104119;28;20673;-67
2021/04/20 09:36:10;;;;;;;28.77;13.48;;;49.60;17.80;;;;;;5099662;27;20282;-67
2021/04/20 09:38:40;;;;;;;17.10;11.82;;;49.40;17.60;;;;;;5107461;27;20252;-67
2021/04/20 09:41:10;;;;;;;26.60;12.68;;;49.20;17.80;;;;;;5105951;28;20242;-67
2021/04/20 09:43:50;;;;;;;18.10;11.85;;;49.10;17.90;;;;;;5104166;28;20636;-67
2021/04/20 09:46:23;;;;;;;34.78;14.10;;;49.00;17.80;;;;;;5102880;28;20628;-67
2021/04/20 09:48:58;;;;;;;26.48;13.35;;;49.00;17.80;;;;;;5100338;27;20233;-68
2021/04/20 09:51:32;;;;;;;35.25;14.35;;;48.90;17.60;;;;;;5102796;27;20195;-67
2021/04/20 09:54:04;;;;;;;39.70;14.15;;;48.60;17.40;;;;;;5102147;27;20749;-67
2021/04/20 09:56:36;;;;;;;18.63;10.65;;;48.20;17.50;;;;;;5104432;27;20198;-67
2021/04/20 09:59:08;;;;;;;17.65;10.95;;;47.70;17.90;;;;;;5104610;27;20282;-67
2021/04/20 10:01:55;;;;;;;13.85;10.70;;;46.90;18.10;;;;;;5102015;28;20203;-67
2021/04/20 10:04:34;;;;;;;18.58;12.55;;;46.20;18.40;;;;;;5104695;27;20613;-67
2021/04/20 10:07:19;;;;;;;23.42;11.88;;;45.80;18.40;;;;;;5102846;28;20206;-67
2021/04/20 10:09:51;;;;;;;24.52;13.35;;;45.40;19.10;;;;;;5103692;28;20622;-69
2021/04/20 10:12:48;;;;;;;16.15;10.80;;;45.00;18.60;;;;;;5104562;27;20221;-69
2021/04/20 10:15:22;;;;;;;24.30;12.43;;;44.60;18.90;;;;;;5101084;28;20203;-68
2021/04/20 10:18:02;;;;;;;20.10;12.23;;;44.40;19.10;;;;;;5105479;27;20566;-69
2021/04/20 10:20:37;;;;;;;20.98;12.27;;;44.00;19.10;;;;;;5105547;28;20210;-68
2021/04/20 10:23:13;;;;;;;18.65;11.98;;;43.60;19.20;;;;;;5102836;28;20186;-68
2021/04/20 10:25:45;;;;;;;24.42;12.10;;;43.00;19.20;;;;;;5103882;27;20234;-69
2021/04/20 10:28:24;;;;;;;22.83;12.18;;;42.70;19.60;;;;;;5100497;28;20203;-69
2021/04/20 10:30:57;;;;;;;24.50;13.05;;;42.30;19.70;;;;;;5103147;28;20576;-69
2021/04/20 10:33:25;;;;;;;25.42;14.35;;;42.10;19.80;;;;;;5119647;27;20203;-69
2021/04/20 10:35:56;;;;;;;26.27;13.82;;;41.70;19.80;;;;;;5104943;28;20611;-69
2021/04/20 10:38:28;;;;;;;25.00;13.20;;;41.50;19.80;;;;;;5103193;28;20194;-68
2021/04/20 10:40:54;;;;;;;27.63;13.05;;;41.10;20.10;;;;;;5101631;28;20243;-68
2021/04/20 10:43:24;;;;;;;19.98;11.85;;;40.80;20.40;;;;;;5104660;28;20666;-68
2021/04/20 10:45:53;;;;;;;20.35;12.43;;;40.60;20.60;;;;;;5103262;28;20211;-68
2021/04/20 10:48:24;;;;;;;21.85;12.70;;;40.60;20.70;;;;;;5104669;28;20247;-69
2021/04/20 10:50:54;;;;;;;20.88;13.98;;;40.80;20.60;;;;;;5099116;28;20380;-69
2021/04/20 10:53:22;;;;;;;19.10;12.18;;;40.50;20.40;;;;;;5105554;28;20630;-70
2021/04/20 10:55:53;;;;;;;19.27;12.18;;;40.30;20.70;;;;;;5103731;28;20191;-70
2021/04/20 10:58:25;;;;;;;16.83;11.43;;;40.00;20.70;;;;;;5102815;28;20669;-70
2021/04/20 11:00:53;;;;;;;22.38;12.55;;;39.80;20.90;;;;;;5100321;28;20212;-70
2021/04/20 11:03:25;;;;;;;22.50;11.70;;;39.50;21.10;;;;;;5108000;28;20195;-70
2021/04/20 11:05:53;;;;;;;19.73;12.40;;;39.40;21.30;;;;;;5100643;28;20192;-70
2021/04/20 11:08:24;;;;;;;18.60;11.82;;;39.10;21.40;;;;;;5102615;28;20282;-69
2021/04/20 11:10:52;;;;;;;19.85;12.50;;;38.50;21.60;;;;;;5103861;28;20184;-70
2021/04/20 11:13:34;;;;;;;22.92;12.60;;;38.30;22.00;;;;;;5102815;28;20683;-70
2021/04/20 11:16:04;;;;;;;19.77;12.90;;;37.80;22.20;;;;;;5103686;28;20192;-69
2021/04/20 11:18:34;;;;;;;19.48;12.45;;;37.50;22.50;;;;;;5102048;28;20738;-70
2021/04/20 11:21:03;;;;;;;27.48;14.93;;;37.00;22.70;;;;;;5091116;28;20245;-70
2021/04/20 11:23:32;;;;;;;26.33;13.93;;;36.40;22.80;;;;;;5101919;28;20342;-70
2021/04/20 11:26:04;;;;;;;28.67;13.15;;;36.00;23.20;;;;;;5099551;28;20255;-70
2021/04/20 11:28:42;;;;;;;26.25;12.23;;;35.80;23.50;;;;;;5101689;28;20198;-70
2021/04/20 11:31:20;;;;;;;25.20;11.73;;;35.40;23.60;;;;;;5102708;28;20588;-69
2021/04/20 11:33:54;;;;;;;20.55;11.07;;;35.10;24.00;;;;;;5103720;28;20275;-69
2021/04/20 11:36:23;;;;;;;23.00;11.05;;;34.80;24.10;;;;;;5098395;28;20231;-70
2021/04/20 11:38:54;;;;;;;17.10;10.68;;;34.60;24.30;;;;;;5100657;28;20204;-70
2021/04/20 11:41:28;;;;;;;18.95;11.00;;;34.40;24.40;;;;;;5103192;28;20704;-70
2021/04/20 11:43:58;;;;;;;18.70;10.80;;;33.90;24.40;;;;;;5102055;28;20699;-69
2021/04/20 11:46:28;;;;;;;19.25;11.90;;;33.50;24.70;;;;;;5101948;28;20195;-70
2021/04/20 11:49:07;;;;;;;16.05;11.85;;;33.10;25.00;;;;;;5106919;28;20275;-70
2021/04/20 11:51:35;;;;;;;19.63;11.00;;;32.80;25.10;;;;;;5108037;27;20670;-70
2021/04/20 11:54:03;;;;;;;17.70;12.55;;;32.70;25.20;;;;;;5103829;28;20825;-70
2021/04/20 11:56:35;;;;;;;19.83;13.57;;;32.60;25.00;;;;;;5108679;27;20200;-71
2021/04/20 11:59:03;;;;;;;17.63;12.43;;;32.30;24.90;;;;;;5107664;27;20433;-70
2021/04/20 12:01:31;;;;;;;19.60;12.57;;;32.00;25.10;;;;;;5104309;28;20273;-70
2021/04/20 12:04:01;;;;;;;29.02;15.77;;;31.80;25.20;;;;;;5108579;27;20183;-71
2021/04/20 12:06:39;;;;;;;31.25;15.32;;;31.50;25.20;;;;;;5105425;28;20195;-71
2021/04/20 12:09:06;;;;;;;25.15;14.85;;;31.10;25.30;;;;;;5108467;27;20622;-70
2021/04/20 12:11:34;;;;;;;28.25;16.95;;;30.40;25.60;;;;;;5101181;28;20596;-70
2021/04/20 12:14:01;;;;;;;32.92;16.95;;;29.70;26.20;;;;;;5104693;27;20200;-70
2021/04/20 12:16:34;;;;;;;27.05;15.65;;;28.80;26.90;;;;;;5105687;27;20207;-70
2021/04/20 12:19:05;;;;;;;26.92;15.50;;;28.00;27.80;;;;;;5107513;27;20227;-70
2021/04/20 12:21:32;;;;;;;33.65;17.45;;;27.20;28.30;;;;;;5108388;27;20755;-71
2021/04/20 12:24:00;;;;;;;26.40;14.90;;;26.50;28.70;;;;;;5105889;27;20235;-70
2021/04/20 12:26:29;;;;;;;27.95;14.48;;;26.00;29.20;;;;;;5102537;27;20298;-70
2021/04/20 12:28:59;;;;;;;28.55;14.25;;;25.60;29.80;;;;;;5107371;27;20775;-69
2021/04/20 12:31:30;;;;;;;28.40;14.48;;;25.30;30.20;;;;;;5106174;27;20200;-69
2021/04/20 12:33:58;;;;;;;38.42;14.23;;;25.00;30.70;;;;;;5109573;27;20241;-69
2021/04/20 12:36:27;;;;;;;26.38;13.80;;;24.70;30.90;;;;;;5109047;27;20203;-69
2021/04/20 12:38:58;;;;;;;19.92;13.07;;;24.50;31.50;;;;;;5106899;27;20231;-69
2021/04/20 12:41:28;;;;;;;25.63;13.65;;;24.30;31.70;;;;;;5104611;27;20223;-68
2021/04/20 12:43:58;;;;;;;27.13;12.88;;;24.10;32.20;;;;;;5102680;27;20253;-69
2021/04/20 12:46:27;;;;;;;21.80;12.30;;;23.80;32.50;;;;;;5105474;27;20219;-70
2021/04/20 12:48:59;;;;;;;19.23;11.05;;;23.60;32.80;;;;;;5106791;27;20203;-70
2021/04/20 12:51:30;;;;;;;28.75;13.20;;;23.40;33.00;;;;;;5103171;27;20198;-68
2021/04/20 12:53:58;;;;;;;17.50;11.65;;;23.40;33.40;;;;;;5108641;27;20188;-70
2021/04/20 12:56:29;;;;;;;20.75;11.00;;;23.20;33.40;;;;;;5107439;27;20274;-70
2021/04/20 12:58:58;;;;;;;19.73;10.63;;;23.20;33.70;;;;;;5107659;27;21104;-70
2021/04/20 13:01:26;;;;;;;24.55;13.23;;;23.20;33.90;;;;;;5100734;28;20215;-69
2021/04/20 13:03:55;;;;;;;26.02;13.25;;;23.10;35.00;;;;;;5108298;27;20234;-70
2021/04/20 13:06:24;;;;;;;31.52;12.80;;;22.80;34.60;;;;;;5106883;28;20207;-70